sensor_id;sensor_type;location;lat;lon;timestamp;temperature;humidity
8487;DHT22;4280;50.534;8.708;2024-03-02T00:00:22;4.20;1.00
8487;DHT22;4280;50.534;8.708;2024-03-02T00:02:50;4.00;1.00
8487;DHT22;4280;50.534;8.708;2024-03-02T00:05:20;3.90;1.00
8487;DHT22;4280;50.534;8.708;2024-03-02T00:07:55;3.80;1.00
8487;DHT22;4280;50.534;8.708;2024-03-02T00:10:25;3.70;1.00
8487;DHT22;4280;50.534;8.708;2024-03-02T00:12:55;3.60;1.00
8487;DHT22;4280;50.534;8.708;2024-03-02T00:15:41;3.50;1.00
8487;DHT22;4280;50.534;8.708;2024-03-02T00:18:13;3.50;1.00
8487;DHT22;4280;50.534;8.708;2024-03-02T00:20:40;3.50;1.00
8487;DHT22;4280;50.534;8.708;2024-03-02T00:23:07;3.60;1.00
8487;DHT22;4280;50.534;8.708;2024-03-02T00:25:54;3.60;1.00
8487;DHT22;4280;50.534;8.708;2024-03-02T00:28:25;3.70;1.00
8487;DHT22;4280;50.534;8.708;2024-03-02T00:30:58;3.60;1.00
8487;DHT22;4280;50.534;8.708;2024-03-02T00:33:32;3.70;1.00
8487;DHT22;4280;50.534;8.708;2024-03-02T00:36:04;3.70;1.00
8487;DHT22;4280;50.534;8.708;2024-03-02T00:38:32;3.60;1.00
8487;DHT22;4280;50.534;8.708;2024-03-02T00:41:05;3.60;1.00
8487;DHT22;4280;50.534;8.708;2024-03-02T00:43:42;3.70;1.00
8487;DHT22;4280;50.534;8.708;2024-03-02T00:46:17;3.70;1.00
8487;DHT22;4280;50.534;8.708;2024-03-02T00:49:04;3.60;1.00
8487;DHT22;4280;50.534;8.708;2024-03-02T00:51:53;3.50;1.00
8487;DHT22;4280;50.534;8.708;2024-03-02T00:54:21;3.60;1.00
8487;DHT22;4280;50.534;8.708;2024-03-02T00:56:49;3.70;1.00
8487;DHT22;4280;50.534;8.708;2024-03-02T00:59:16;3.80;1.00
8487;DHT22;4280;50.534;8.708;2024-03-02T01:01:41;3.70;1.00
8487;DHT22;4280;50.534;8.708;2024-03-02T01:04:08;3.60;1.00
8487;DHT22;4280;50.534;8.708;2024-03-02T01:06:35;3.60;1.00
8487;DHT22;4280;50.534;8.708;2024-03-02T01:09:01;3.50;1.00
8487;DHT22;4280;50.534;8.708;2024-03-02T01:11:28;3.50;1.00
8487;DHT22;4280;50.534;8.708;2024-03-02T01:13:53;3.50;1.00
8487;DHT22;4280;50.534;8.708;2024-03-02T01:16:19;3.50;1.00
8487;DHT22;4280;50.534;8.708;2024-03-02T01:18:45;3.60;1.00
8487;DHT22;4280;50.534;8.708;2024-03-02T01:21:11;3.60;1.00
8487;DHT22;4280;50.534;8.708;2024-03-02T01:23:37;3.60;1.00
8487;DHT22;4280;50.534;8.708;2024-03-02T01:26:03;3.60;1.00
8487;DHT22;4280;50.534;8.708;2024-03-02T01:28:29;3.60;1.00
8487;DHT22;4280;50.534;8.708;2024-03-02T01:30:55;3.70;1.00
8487;DHT22;4280;50.534;8.708;2024-03-02T01:33:20;3.70;1.00
8487;DHT22;4280;50.534;8.708;2024-03-02T01:35:46;4.00;1.00
8487;DHT22;4280;50.534;8.708;2024-03-02T01:38:12;4.20;1.00
8487;DHT22;4280;50.534;8.708;2024-03-02T01:40:38;4.30;1.00
8487;DHT22;4280;50.534;8.708;2024-03-02T01:43:05;4.40;1.00
8487;DHT22;4280;50.534;8.708;2024-03-02T01:45:31;4.30;1.00
8487;DHT22;4280;50.534;8.708;2024-03-02T01:47:57;4.20;1.00
8487;DHT22;4280;50.534;8.708;2024-03-02T01:50:32;4.10;1.00
8487;DHT22;4280;50.534;8.708;2024-03-02T01:52:59;4.00;1.00
8487;DHT22;4280;50.534;8.708;2024-03-02T01:55:25;3.90;1.00
8487;DHT22;4280;50.534;8.708;2024-03-02T01:57:52;3.90;1.00
8487;DHT22;4280;50.534;8.708;2024-03-02T02:00:21;3.90;1.00
8487;DHT22;4280;50.534;8.708;2024-03-02T02:02:50;3.90;1.00
8487;DHT22;4280;50.534;8.708;2024-03-02T02:05:17;3.90;1.00
8487;DHT22;4280;50.534;8.708;2024-03-02T02:07:43;3.90;1.00
8487;DHT22;4280;50.534;8.708;2024-03-02T02:10:12;3.80;1.00
8487;DHT22;4280;50.534;8.708;2024-03-02T02:12:38;3.60;1.00
8487;DHT22;4280;50.534;8.708;2024-03-02T02:15:26;3.60;1.00
8487;DHT22;4280;50.534;8.708;2024-03-02T02:17:51;3.50;1.00
8487;DHT22;4280;50.534;8.708;2024-03-02T02:20:17;3.60;1.00
8487;DHT22;4280;50.534;8.708;2024-03-02T02:25:27;3.60;1.00
8487;DHT22;4280;50.534;8.708;2024-03-02T02:27:54;3.60;1.00
8487;DHT22;4280;50.534;8.708;2024-03-02T02:30:21;3.60;1.00
8487;DHT22;4280;50.534;8.708;2024-03-02T02:32:54;3.50;1.00
8487;DHT22;4280;50.534;8.708;2024-03-02T02:35:20;3.40;1.00
8487;DHT22;4280;50.534;8.708;2024-03-02T02:37:46;3.40;1.00
8487;DHT22;4280;50.534;8.708;2024-03-02T02:40:12;3.30;1.00
8487;DHT22;4280;50.534;8.708;2024-03-02T02:42:39;3.40;1.00
8487;DHT22;4280;50.534;8.708;2024-03-02T02:45:06;3.40;1.00
8487;DHT22;4280;50.534;8.708;2024-03-02T02:47:32;3.40;1.00
8487;DHT22;4280;50.534;8.708;2024-03-02T02:50:02;3.40;1.00
8487;DHT22;4280;50.534;8.708;2024-03-02T02:52:33;3.50;1.00
8487;DHT22;4280;50.534;8.708;2024-03-02T02:55:01;3.30;1.00
8487;DHT22;4280;50.534;8.708;2024-03-02T02:57:28;3.30;1.00
8487;DHT22;4280;50.534;8.708;2024-03-02T02:59:56;3.20;1.00
8487;DHT22;4280;50.534;8.708;2024-03-02T03:02:21;3.20;1.00
8487;DHT22;4280;50.534;8.708;2024-03-02T03:04:47;3.20;1.00
8487;DHT22;4280;50.534;8.708;2024-03-02T03:07:13;3.10;1.00
8487;DHT22;4280;50.534;8.708;2024-03-02T03:09:39;3.00;1.00
8487;DHT22;4280;50.534;8.708;2024-03-02T03:12:05;3.00;1.00
8487;DHT22;4280;50.534;8.708;2024-03-02T03:14:31;3.10;1.00
8487;DHT22;4280;50.534;8.708;2024-03-02T03:16:56;3.00;1.00
8487;DHT22;4280;50.534;8.708;2024-03-02T03:19:22;2.90;1.00
8487;DHT22;4280;50.534;8.708;2024-03-02T03:21:48;3.00;1.00
8487;DHT22;4280;50.534;8.708;2024-03-02T03:24:14;3.00;1.00
8487;DHT22;4280;50.534;8.708;2024-03-02T03:26:39;3.00;1.00
8487;DHT22;4280;50.534;8.708;2024-03-02T03:29:05;3.00;1.00
8487;DHT22;4280;50.534;8.708;2024-03-02T03:31:31;3.00;1.00
8487;DHT22;4280;50.534;8.708;2024-03-02T03:33:57;2.90;1.00
8487;DHT22;4280;50.534;8.708;2024-03-02T03:36:23;2.90;1.00
8487;DHT22;4280;50.534;8.708;2024-03-02T03:38:48;3.00;1.00
8487;DHT22;4280;50.534;8.708;2024-03-02T03:41:14;3.00;1.00
8487;DHT22;4280;50.534;8.708;2024-03-02T03:43:40;3.00;1.00
8487;DHT22;4280;50.534;8.708;2024-03-02T03:46:06;3.00;1.00
8487;DHT22;4280;50.534;8.708;2024-03-02T03:48:32;3.10;1.00
8487;DHT22;4280;50.534;8.708;2024-03-02T03:50:57;3.10;1.00
8487;DHT22;4280;50.534;8.708;2024-03-02T03:53:23;3.20;1.00
8487;DHT22;4280;50.534;8.708;2024-03-02T03:55:49;3.10;1.00
8487;DHT22;4280;50.534;8.708;2024-03-02T03:58:15;3.10;1.00
8487;DHT22;4280;50.534;8.708;2024-03-02T04:00:42;3.10;1.00
8487;DHT22;4280;50.534;8.708;2024-03-02T04:03:08;3.20;1.00
8487;DHT22;4280;50.534;8.708;2024-03-02T04:05:34;3.10;1.00
8487;DHT22;4280;50.534;8.708;2024-03-02T04:07:59;3.10;1.00
8487;DHT22;4280;50.534;8.708;2024-03-02T04:10:26;3.10;1.00
8487;DHT22;4280;50.534;8.708;2024-03-02T04:12:52;3.30;1.00
8487;DHT22;4280;50.534;8.708;2024-03-02T04:15:17;3.10;1.00
8487;DHT22;4280;50.534;8.708;2024-03-02T04:17:44;3.10;1.00
8487;DHT22;4280;50.534;8.708;2024-03-02T04:20:10;3.20;1.00
8487;DHT22;4280;50.534;8.708;2024-03-02T04:22:38;3.10;1.00
8487;DHT22;4280;50.534;8.708;2024-03-02T04:25:04;3.20;5.90
8487;DHT22;4280;50.534;8.708;2024-03-02T04:27:32;3.30;10.40
8487;DHT22;4280;50.534;8.708;2024-03-02T04:29:58;3.20;19.20
8487;DHT22;4280;50.534;8.708;2024-03-02T04:32:26;3.30;17.30
8487;DHT22;4280;50.534;8.708;2024-03-02T04:34:52;3.30;20.10
8487;DHT22;4280;50.534;8.708;2024-03-02T04:37:18;3.30;21.00
8487;DHT22;4280;50.534;8.708;2024-03-02T04:39:43;3.40;23.70
8487;DHT22;4280;50.534;8.708;2024-03-02T04:42:09;3.40;23.80
8487;DHT22;4280;50.534;8.708;2024-03-02T04:44:35;3.30;22.00
8487;DHT22;4280;50.534;8.708;2024-03-02T04:47:01;3.30;20.90
8487;DHT22;4280;50.534;8.708;2024-03-02T04:49:26;3.30;22.10
8487;DHT22;4280;50.534;8.708;2024-03-02T04:51:52;3.40;22.60
8487;DHT22;4280;50.534;8.708;2024-03-02T04:54:18;3.30;20.90
8487;DHT22;4280;50.534;8.708;2024-03-02T04:56:43;3.30;22.40
8487;DHT22;4280;50.534;8.708;2024-03-02T04:59:19;3.30;23.70
8487;DHT22;4280;50.534;8.708;2024-03-02T05:01:45;3.30;24.70
8487;DHT22;4280;50.534;8.708;2024-03-02T05:04:11;3.30;24.60
8487;DHT22;4280;50.534;8.708;2024-03-02T05:06:38;3.30;26.00
8487;DHT22;4280;50.534;8.708;2024-03-02T05:09:07;3.40;26.60
8487;DHT22;4280;50.534;8.708;2024-03-02T05:11:36;3.30;27.90
8487;DHT22;4280;50.534;8.708;2024-03-02T05:14:19;3.30;31.40
8487;DHT22;4280;50.534;8.708;2024-03-02T05:16:44;3.30;37.10
8487;DHT22;4280;50.534;8.708;2024-03-02T05:19:10;3.30;38.70
8487;DHT22;4280;50.534;8.708;2024-03-02T05:21:36;3.30;40.50
8487;DHT22;4280;50.534;8.708;2024-03-02T05:24:01;3.40;53.70
8487;DHT22;4280;50.534;8.708;2024-03-02T05:26:27;3.30;64.20
8487;DHT22;4280;50.534;8.708;2024-03-02T05:28:53;3.50;82.20
8487;DHT22;4280;50.534;8.708;2024-03-02T05:31:19;3.50;98.00
8487;DHT22;4280;50.534;8.708;2024-03-02T05:33:44;3.50;99.90
8487;DHT22;4280;50.534;8.708;2024-03-02T05:36:10;3.40;99.90
8487;DHT22;4280;50.534;8.708;2024-03-02T05:38:36;3.60;99.90
8487;DHT22;4280;50.534;8.708;2024-03-02T05:41:02;3.60;99.90
8487;DHT22;4280;50.534;8.708;2024-03-02T05:43:27;3.70;99.90
8487;DHT22;4280;50.534;8.708;2024-03-02T05:45:53;3.70;99.90
8487;DHT22;4280;50.534;8.708;2024-03-02T05:48:19;3.70;99.90
8487;DHT22;4280;50.534;8.708;2024-03-02T05:50:45;3.70;99.90
8487;DHT22;4280;50.534;8.708;2024-03-02T05:53:11;3.70;99.90
8487;DHT22;4280;50.534;8.708;2024-03-02T05:55:36;3.70;99.90
8487;DHT22;4280;50.534;8.708;2024-03-02T05:58:02;4.00;99.90
8487;DHT22;4280;50.534;8.708;2024-03-02T06:00:30;3.90;99.90
8487;DHT22;4280;50.534;8.708;2024-03-02T06:02:56;3.90;99.90
8487;DHT22;4280;50.534;8.708;2024-03-02T06:05:22;3.80;99.90
8487;DHT22;4280;50.534;8.708;2024-03-02T06:07:48;3.90;99.90
8487;DHT22;4280;50.534;8.708;2024-03-02T06:10:13;3.80;99.90
8487;DHT22;4280;50.534;8.708;2024-03-02T06:12:40;3.80;99.90
8487;DHT22;4280;50.534;8.708;2024-03-02T06:15:06;3.80;99.90
8487;DHT22;4280;50.534;8.708;2024-03-02T06:17:32;3.80;99.90
8487;DHT22;4280;50.534;8.708;2024-03-02T06:19:58;3.80;99.30
8487;DHT22;4280;50.534;8.708;2024-03-02T06:22:24;3.80;96.60
8487;DHT22;4280;50.534;8.708;2024-03-02T06:24:51;3.80;91.50
8487;DHT22;4280;50.534;8.708;2024-03-02T06:27:16;3.80;87.60
8487;DHT22;4280;50.534;8.708;2024-03-02T06:29:42;3.90;82.90
8487;DHT22;4280;50.534;8.708;2024-03-02T06:32:08;3.90;66.50
8487;DHT22;4280;50.534;8.708;2024-03-02T06:34:34;3.80;60.10
8487;DHT22;4280;50.534;8.708;2024-03-02T06:36:59;3.90;51.00
8487;DHT22;4280;50.534;8.708;2024-03-02T06:39:25;3.90;43.70
8487;DHT22;4280;50.534;8.708;2024-03-02T06:41:51;3.90;34.60
8487;DHT22;4280;50.534;8.708;2024-03-02T06:44:17;4.00;31.60
8487;DHT22;4280;50.534;8.708;2024-03-02T06:46:43;4.10;14.90
8487;DHT22;4280;50.534;8.708;2024-03-02T06:49:09;4.20;6.00
8487;DHT22;4280;50.534;8.708;2024-03-02T06:51:36;4.40;1.00
8487;DHT22;4280;50.534;8.708;2024-03-02T06:54:02;4.40;1.00
8487;DHT22;4280;50.534;8.708;2024-03-02T06:56:27;4.50;1.00
8487;DHT22;4280;50.534;8.708;2024-03-02T06:58:53;4.50;1.00
8487;DHT22;4280;50.534;8.708;2024-03-02T07:01:19;4.60;1.00
8487;DHT22;4280;50.534;8.708;2024-03-02T07:03:45;4.60;1.00
8487;DHT22;4280;50.534;8.708;2024-03-02T07:06:11;4.70;1.00
8487;DHT22;4280;50.534;8.708;2024-03-02T07:08:37;4.70;1.00
8487;DHT22;4280;50.534;8.708;2024-03-02T07:11:03;4.60;1.00
8487;DHT22;4280;50.534;8.708;2024-03-02T07:13:28;4.70;1.00
8487;DHT22;4280;50.534;8.708;2024-03-02T07:15:54;4.70;1.00
8487;DHT22;4280;50.534;8.708;2024-03-02T07:18:29;4.70;1.00
8487;DHT22;4280;50.534;8.708;2024-03-02T07:20:59;4.70;1.00
8487;DHT22;4280;50.534;8.708;2024-03-02T07:23:26;4.70;1.00
8487;DHT22;4280;50.534;8.708;2024-03-02T07:25:53;4.60;1.00
8487;DHT22;4280;50.534;8.708;2024-03-02T07:28:22;4.60;1.00
8487;DHT22;4280;50.534;8.708;2024-03-02T07:30:58;4.60;1.00
8487;DHT22;4280;50.534;8.708;2024-03-02T07:33:24;4.60;1.00
8487;DHT22;4280;50.534;8.708;2024-03-02T07:35:50;4.50;1.00
8487;DHT22;4280;50.534;8.708;2024-03-02T07:38:16;4.60;1.00
8487;DHT22;4280;50.534;8.708;2024-03-02T07:40:42;4.60;1.00
8487;DHT22;4280;50.534;8.708;2024-03-02T07:43:08;4.60;1.00
8487;DHT22;4280;50.534;8.708;2024-03-02T07:45:34;4.80;1.00
8487;DHT22;4280;50.534;8.708;2024-03-02T07:48:01;5.00;1.00
8487;DHT22;4280;50.534;8.708;2024-03-02T07:50:29;5.10;1.00
8487;DHT22;4280;50.534;8.708;2024-03-02T07:52:55;5.20;1.00
8487;DHT22;4280;50.534;8.708;2024-03-02T07:55:21;5.30;1.00
8487;DHT22;4280;50.534;8.708;2024-03-02T07:57:49;5.30;1.00
8487;DHT22;4280;50.534;8.708;2024-03-02T08:00:15;5.40;1.00
8487;DHT22;4280;50.534;8.708;2024-03-02T08:02:41;5.60;1.00
8487;DHT22;4280;50.534;8.708;2024-03-02T08:05:08;5.70;1.00
8487;DHT22;4280;50.534;8.708;2024-03-02T08:07:34;6.00;1.00
8487;DHT22;4280;50.534;8.708;2024-03-02T08:10:00;6.20;1.00
8487;DHT22;4280;50.534;8.708;2024-03-02T08:12:25;6.30;1.00
8487;DHT22;4280;50.534;8.708;2024-03-02T08:14:51;6.20;1.00
8487;DHT22;4280;50.534;8.708;2024-03-02T08:17:17;6.30;1.00
8487;DHT22;4280;50.534;8.708;2024-03-02T08:19:44;6.40;1.00
8487;DHT22;4280;50.534;8.708;2024-03-02T08:22:10;6.60;1.00
8487;DHT22;4280;50.534;8.708;2024-03-02T08:24:36;6.90;1.00
8487;DHT22;4280;50.534;8.708;2024-03-02T08:27:02;7.00;1.00
8487;DHT22;4280;50.534;8.708;2024-03-02T08:29:28;7.20;1.00
8487;DHT22;4280;50.534;8.708;2024-03-02T08:31:54;7.40;1.00
8487;DHT22;4280;50.534;8.708;2024-03-02T08:34:19;7.60;1.00
8487;DHT22;4280;50.534;8.708;2024-03-02T08:36:46;7.70;1.00
8487;DHT22;4280;50.534;8.708;2024-03-02T08:39:12;7.70;1.00
8487;DHT22;4280;50.534;8.708;2024-03-02T08:41:47;7.80;1.00
8487;DHT22;4280;50.534;8.708;2024-03-02T08:44:13;7.70;1.00
8487;DHT22;4280;50.534;8.708;2024-03-02T08:46:40;7.80;1.00
8487;DHT22;4280;50.534;8.708;2024-03-02T08:49:06;7.80;1.00
8487;DHT22;4280;50.534;8.708;2024-03-02T08:51:32;7.80;1.00
8487;DHT22;4280;50.534;8.708;2024-03-02T08:53:58;7.90;1.00
8487;DHT22;4280;50.534;8.708;2024-03-02T08:56:24;8.00;1.00
8487;DHT22;4280;50.534;8.708;2024-03-02T08:58:51;7.90;1.00
8487;DHT22;4280;50.534;8.708;2024-03-02T09:01:18;7.80;1.00
8487;DHT22;4280;50.534;8.708;2024-03-02T09:03:45;7.90;1.00
8487;DHT22;4280;50.534;8.708;2024-03-02T09:06:11;7.80;1.00
8487;DHT22;4280;50.534;8.708;2024-03-02T09:08:38;7.80;1.00
8487;DHT22;4280;50.534;8.708;2024-03-02T09:11:07;7.90;1.00
8487;DHT22;4280;50.534;8.708;2024-03-02T09:13:33;7.90;1.00
8487;DHT22;4280;50.534;8.708;2024-03-02T09:15:59;7.90;1.00
8487;DHT22;4280;50.534;8.708;2024-03-02T09:18:25;7.90;1.00
8487;DHT22;4280;50.534;8.708;2024-03-02T09:20:50;8.00;1.00
8487;DHT22;4280;50.534;8.708;2024-03-02T09:23:16;8.00;1.00
8487;DHT22;4280;50.534;8.708;2024-03-02T09:25:42;8.10;1.00
8487;DHT22;4280;50.534;8.708;2024-03-02T09:28:07;8.30;1.00
8487;DHT22;4280;50.534;8.708;2024-03-02T09:30:33;8.30;1.00
8487;DHT22;4280;50.534;8.708;2024-03-02T09:32:59;8.50;1.00
8487;DHT22;4280;50.534;8.708;2024-03-02T09:35:25;8.50;1.00
8487;DHT22;4280;50.534;8.708;2024-03-02T09:37:50;8.50;1.00
8487;DHT22;4280;50.534;8.708;2024-03-02T09:40:16;8.60;1.00
8487;DHT22;4280;50.534;8.708;2024-03-02T09:42:42;8.60;1.00
8487;DHT22;4280;50.534;8.708;2024-03-02T09:45:09;8.60;1.00
8487;DHT22;4280;50.534;8.708;2024-03-02T09:47:35;8.70;1.00
8487;DHT22;4280;50.534;8.708;2024-03-02T09:50:01;8.90;1.00
8487;DHT22;4280;50.534;8.708;2024-03-02T09:52:27;8.90;1.00
8487;DHT22;4280;50.534;8.708;2024-03-02T09:54:53;8.90;1.00
8487;DHT22;4280;50.534;8.708;2024-03-02T09:57:18;8.80;1.00
8487;DHT22;4280;50.534;8.708;2024-03-02T09:59:44;8.80;1.00
8487;DHT22;4280;50.534;8.708;2024-03-02T10:02:10;9.20;1.00
8487;DHT22;4280;50.534;8.708;2024-03-02T10:04:36;9.40;1.00
8487;DHT22;4280;50.534;8.708;2024-03-02T10:07:16;9.80;1.00
8487;DHT22;4280;50.534;8.708;2024-03-02T10:09:44;9.50;1.00
8487;DHT22;4280;50.534;8.708;2024-03-02T10:12:12;9.70;1.00
8487;DHT22;4280;50.534;8.708;2024-03-02T10:14:38;9.60;1.00
8487;DHT22;4280;50.534;8.708;2024-03-02T10:17:07;9.80;1.00
8487;DHT22;4280;50.534;8.708;2024-03-02T10:19:35;10.20;1.00
8487;DHT22;4280;50.534;8.708;2024-03-02T10:22:03;10.20;1.00
8487;DHT22;4280;50.534;8.708;2024-03-02T10:24:39;10.00;1.00
8487;DHT22;4280;50.534;8.708;2024-03-02T10:27:15;10.00;1.00
8487;DHT22;4280;50.534;8.708;2024-03-02T10:29:42;10.00;1.00
8487;DHT22;4280;50.534;8.708;2024-03-02T10:32:11;9.90;1.00
8487;DHT22;4280;50.534;8.708;2024-03-02T10:34:39;10.00;1.00
8487;DHT22;4280;50.534;8.708;2024-03-02T10:37:05;9.90;1.00
8487;DHT22;4280;50.534;8.708;2024-03-02T10:39:35;9.90;1.00
8487;DHT22;4280;50.534;8.708;2024-03-02T10:42:02;10.00;1.00
8487;DHT22;4280;50.534;8.708;2024-03-02T10:44:29;10.00;1.00
8487;DHT22;4280;50.534;8.708;2024-03-02T10:46:56;10.10;1.00
8487;DHT22;4280;50.534;8.708;2024-03-02T10:49:23;10.20;1.00
8487;DHT22;4280;50.534;8.708;2024-03-02T10:51:50;10.50;1.00
8487;DHT22;4280;50.534;8.708;2024-03-02T10:54:16;10.50;1.00
8487;DHT22;4280;50.534;8.708;2024-03-02T10:56:44;10.40;1.00
8487;DHT22;4280;50.534;8.708;2024-03-02T11:01:50;10.80;1.00
8487;DHT22;4280;50.534;8.708;2024-03-02T11:04:18;10.90;1.00
8487;DHT22;4280;50.534;8.708;2024-03-02T11:07:09;11.20;1.00
8487;DHT22;4280;50.534;8.708;2024-03-02T11:09:40;11.00;1.00
8487;DHT22;4280;50.534;8.708;2024-03-02T11:12:18;11.10;1.00
8487;DHT22;4280;50.534;8.708;2024-03-02T11:14:45;11.20;1.00
8487;DHT22;4280;50.534;8.708;2024-03-02T11:17:13;11.40;1.00
8487;DHT22;4280;50.534;8.708;2024-03-02T11:19:41;11.40;1.00
8487;DHT22;4280;50.534;8.708;2024-03-02T11:22:08;11.30;1.00
8487;DHT22;4280;50.534;8.708;2024-03-02T11:24:34;11.30;1.00
8487;DHT22;4280;50.534;8.708;2024-03-02T11:27:01;11.50;1.00
8487;DHT22;4280;50.534;8.708;2024-03-02T11:32:05;11.40;1.00
8487;DHT22;4280;50.534;8.708;2024-03-02T11:34:35;11.70;1.00
8487;DHT22;4280;50.534;8.708;2024-03-02T11:37:02;11.60;1.00
8487;DHT22;4280;50.534;8.708;2024-03-02T11:39:29;11.50;1.00
8487;DHT22;4280;50.534;8.708;2024-03-02T11:41:55;11.60;1.00
8487;DHT22;4280;50.534;8.708;2024-03-02T11:44:25;11.70;1.00
8487;DHT22;4280;50.534;8.708;2024-03-02T11:46:59;12.00;1.00
8487;DHT22;4280;50.534;8.708;2024-03-02T11:52:08;11.90;1.00
8487;DHT22;4280;50.534;8.708;2024-03-02T11:54:38;11.90;1.00
8487;DHT22;4280;50.534;8.708;2024-03-02T11:57:06;12.10;1.00
8487;DHT22;4280;50.534;8.708;2024-03-02T11:59:32;12.50;1.00
8487;DHT22;4280;50.534;8.708;2024-03-02T12:01:59;12.50;1.00
8487;DHT22;4280;50.534;8.708;2024-03-02T12:04:25;12.60;1.00
8487;DHT22;4280;50.534;8.708;2024-03-02T12:06:56;12.70;1.00
8487;DHT22;4280;50.534;8.708;2024-03-02T12:09:28;12.70;1.00
8487;DHT22;4280;50.534;8.708;2024-03-02T12:12:08;12.60;1.00
8487;DHT22;4280;50.534;8.708;2024-03-02T12:14:38;12.30;1.00
8487;DHT22;4280;50.534;8.708;2024-03-02T12:17:05;12.40;1.00
8487;DHT22;4280;50.534;8.708;2024-03-02T12:19:32;12.40;1.00
8487;DHT22;4280;50.534;8.708;2024-03-02T12:22:01;12.60;1.00
8487;DHT22;4280;50.534;8.708;2024-03-02T12:24:28;12.70;1.00
8487;DHT22;4280;50.534;8.708;2024-03-02T12:26:55;12.60;1.00
8487;DHT22;4280;50.534;8.708;2024-03-02T12:29:22;12.40;1.00
8487;DHT22;4280;50.534;8.708;2024-03-02T12:31:49;12.30;1.00
8487;DHT22;4280;50.534;8.708;2024-03-02T12:34:17;12.30;1.00
8487;DHT22;4280;50.534;8.708;2024-03-02T12:36:43;12.50;1.00
8487;DHT22;4280;50.534;8.708;2024-03-02T12:39:13;12.70;1.00
8487;DHT22;4280;50.534;8.708;2024-03-02T12:41:39;12.80;1.00
8487;DHT22;4280;50.534;8.708;2024-03-02T12:44:05;12.70;1.00
8487;DHT22;4280;50.534;8.708;2024-03-02T12:46:34;12.80;1.00
8487;DHT22;4280;50.534;8.708;2024-03-02T12:49:11;12.70;1.00
8487;DHT22;4280;50.534;8.708;2024-03-02T12:51:39;12.90;1.00
8487;DHT22;4280;50.534;8.708;2024-03-02T12:54:09;12.90;1.00
8487;DHT22;4280;50.534;8.708;2024-03-02T12:56:40;12.60;1.00
8487;DHT22;4280;50.534;8.708;2024-03-02T12:59:17;12.50;1.00
8487;DHT22;4280;50.534;8.708;2024-03-02T13:01:51;12.60;1.00
8487;DHT22;4280;50.534;8.708;2024-03-02T13:04:17;12.80;1.00
8487;DHT22;4280;50.534;8.708;2024-03-02T13:06:42;12.70;1.00
8487;DHT22;4280;50.534;8.708;2024-03-02T13:09:08;12.90;1.00
8487;DHT22;4280;50.534;8.708;2024-03-02T13:11:40;12.80;1.00
8487;DHT22;4280;50.534;8.708;2024-03-02T13:14:07;12.80;1.00
8487;DHT22;4280;50.534;8.708;2024-03-02T13:16:41;12.60;1.00
8487;DHT22;4280;50.534;8.708;2024-03-02T13:19:08;12.70;1.00
8487;DHT22;4280;50.534;8.708;2024-03-02T13:21:37;12.60;1.00
8487;DHT22;4280;50.534;8.708;2024-03-02T13:24:03;12.60;1.00
8487;DHT22;4280;50.534;8.708;2024-03-02T13:26:29;12.50;1.00
8487;DHT22;4280;50.534;8.708;2024-03-02T13:28:56;12.50;1.00
8487;DHT22;4280;50.534;8.708;2024-03-02T13:31:21;12.60;1.00
8487;DHT22;4280;50.534;8.708;2024-03-02T13:33:47;12.60;1.00
8487;DHT22;4280;50.534;8.708;2024-03-02T13:36:13;12.50;1.00
8487;DHT22;4280;50.534;8.708;2024-03-02T13:38:39;12.50;1.00
8487;DHT22;4280;50.534;8.708;2024-03-02T13:41:05;12.60;1.00
8487;DHT22;4280;50.534;8.708;2024-03-02T13:43:30;12.70;1.00
8487;DHT22;4280;50.534;8.708;2024-03-02T13:46:02;12.70;1.00
8487;DHT22;4280;50.534;8.708;2024-03-02T13:48:28;12.80;1.00
8487;DHT22;4280;50.534;8.708;2024-03-02T13:50:53;12.70;1.00
8487;DHT22;4280;50.534;8.708;2024-03-02T13:53:20;12.60;1.00
8487;DHT22;4280;50.534;8.708;2024-03-02T13:55:45;12.60;1.00
8487;DHT22;4280;50.534;8.708;2024-03-02T13:58:11;12.80;1.00
8487;DHT22;4280;50.534;8.708;2024-03-02T14:00:37;12.80;1.00
8487;DHT22;4280;50.534;8.708;2024-03-02T14:03:05;12.80;1.00
8487;DHT22;4280;50.534;8.708;2024-03-02T14:05:31;12.90;1.00
8487;DHT22;4280;50.534;8.708;2024-03-02T14:07:57;12.80;1.00
8487;DHT22;4280;50.534;8.708;2024-03-02T14:10:25;12.80;1.00
8487;DHT22;4280;50.534;8.708;2024-03-02T14:12:51;12.80;1.00
8487;DHT22;4280;50.534;8.708;2024-03-02T14:15:16;12.80;1.00
8487;DHT22;4280;50.534;8.708;2024-03-02T14:17:42;12.80;1.00
8487;DHT22;4280;50.534;8.708;2024-03-02T14:20:08;12.80;1.00
8487;DHT22;4280;50.534;8.708;2024-03-02T14:22:37;12.80;1.00
8487;DHT22;4280;50.534;8.708;2024-03-02T14:25:03;12.90;1.00
8487;DHT22;4280;50.534;8.708;2024-03-02T14:27:29;12.80;1.00
8487;DHT22;4280;50.534;8.708;2024-03-02T14:29:55;12.90;1.00
8487;DHT22;4280;50.534;8.708;2024-03-02T14:32:21;12.90;1.00
8487;DHT22;4280;50.534;8.708;2024-03-02T14:34:47;12.90;1.00
8487;DHT22;4280;50.534;8.708;2024-03-02T14:37:17;12.90;1.00
8487;DHT22;4280;50.534;8.708;2024-03-02T14:39:42;13.00;1.00
8487;DHT22;4280;50.534;8.708;2024-03-02T14:42:08;12.90;1.00
8487;DHT22;4280;50.534;8.708;2024-03-02T14:44:34;12.90;1.00
8487;DHT22;4280;50.534;8.708;2024-03-02T14:47:01;12.80;1.00
8487;DHT22;4280;50.534;8.708;2024-03-02T14:49:30;12.80;1.00
8487;DHT22;4280;50.534;8.708;2024-03-02T14:51:56;12.80;1.00
8487;DHT22;4280;50.534;8.708;2024-03-02T14:54:21;12.70;1.00
8487;DHT22;4280;50.534;8.708;2024-03-02T14:56:47;12.80;1.00
8487;DHT22;4280;50.534;8.708;2024-03-02T14:59:13;12.70;1.00
8487;DHT22;4280;50.534;8.708;2024-03-02T15:01:39;12.80;1.00
8487;DHT22;4280;50.534;8.708;2024-03-02T15:04:05;12.90;1.00
8487;DHT22;4280;50.534;8.708;2024-03-02T15:06:30;13.10;1.00
8487;DHT22;4280;50.534;8.708;2024-03-02T15:08:56;13.20;1.00
8487;DHT22;4280;50.534;8.708;2024-03-02T15:11:22;13.20;1.00
8487;DHT22;4280;50.534;8.708;2024-03-02T15:13:48;13.30;1.00
8487;DHT22;4280;50.534;8.708;2024-03-02T15:16:14;13.40;1.00
8487;DHT22;4280;50.534;8.708;2024-03-02T15:18:40;13.40;1.00
8487;DHT22;4280;50.534;8.708;2024-03-02T15:21:05;13.40;1.00
8487;DHT22;4280;50.534;8.708;2024-03-02T15:23:31;13.40;1.00
8487;DHT22;4280;50.534;8.708;2024-03-02T15:25:57;13.40;1.00
8487;DHT22;4280;50.534;8.708;2024-03-02T15:28:22;13.40;1.00
8487;DHT22;4280;50.534;8.708;2024-03-02T15:30:48;13.40;1.00
8487;DHT22;4280;50.534;8.708;2024-03-02T15:33:14;13.30;1.00
8487;DHT22;4280;50.534;8.708;2024-03-02T15:35:39;13.20;1.00
8487;DHT22;4280;50.534;8.708;2024-03-02T15:38:05;13.10;1.00
8487;DHT22;4280;50.534;8.708;2024-03-02T15:40:31;12.90;1.00
8487;DHT22;4280;50.534;8.708;2024-03-02T15:42:57;12.70;1.00
8487;DHT22;4280;50.534;8.708;2024-03-02T15:45:22;12.60;1.00
8487;DHT22;4280;50.534;8.708;2024-03-02T15:47:48;12.50;1.00
8487;DHT22;4280;50.534;8.708;2024-03-02T15:50:14;12.30;1.00
8487;DHT22;4280;50.534;8.708;2024-03-02T15:52:40;12.30;1.00
8487;DHT22;4280;50.534;8.708;2024-03-02T15:55:07;12.30;1.00
8487;DHT22;4280;50.534;8.708;2024-03-02T15:57:34;12.10;1.00
8487;DHT22;4280;50.534;8.708;2024-03-02T15:59:59;12.10;1.00
8487;DHT22;4280;50.534;8.708;2024-03-02T16:02:25;12.10;1.00
8487;DHT22;4280;50.534;8.708;2024-03-02T16:04:51;11.90;1.00
8487;DHT22;4280;50.534;8.708;2024-03-02T16:07:17;11.80;1.00
8487;DHT22;4280;50.534;8.708;2024-03-02T16:09:43;11.90;1.00
8487;DHT22;4280;50.534;8.708;2024-03-02T16:12:08;11.90;1.00
8487;DHT22;4280;50.534;8.708;2024-03-02T16:14:34;11.90;1.00
8487;DHT22;4280;50.534;8.708;2024-03-02T16:17:01;11.80;1.00
8487;DHT22;4280;50.534;8.708;2024-03-02T16:19:26;11.80;1.00
8487;DHT22;4280;50.534;8.708;2024-03-02T16:21:52;11.70;1.00
8487;DHT22;4280;50.534;8.708;2024-03-02T16:24:18;11.60;1.00
8487;DHT22;4280;50.534;8.708;2024-03-02T16:26:43;11.50;1.00
8487;DHT22;4280;50.534;8.708;2024-03-02T16:29:09;11.40;1.00
8487;DHT22;4280;50.534;8.708;2024-03-02T16:31:35;11.30;1.00
8487;DHT22;4280;50.534;8.708;2024-03-02T16:34:01;11.30;1.00
8487;DHT22;4280;50.534;8.708;2024-03-02T16:36:26;11.30;1.00